Time;durP1;ratioP1;P1;durP2;ratioP2;P2;SDS_P1;SDS_P2;PMS_P1;PMS_P2;Temp;Humidity;BMP_temperature;BMP_pressure;BME280_temperature;BME280_humidity;BME280_pressure;Samples;Min_cycle;Max_cycle;Signal;HPM_P1;HPM_P2
2023/05/06 00:00:05;;;;;;;7.88;3.10;;;12.70;99.90;;;;;;5022058;28;20047;-59
2023/05/06 00:02:38;;;;;;;7.40;2.85;;;12.60;99.90;;;;;;5012252;28;20038;-60
2023/05/06 00:05:06;;;;;;;10.20;2.83;;;12.50;99.90;;;;;;5004830;28;20054;-60
2023/05/06 00:07:38;;;;;;;6.80;2.92;;;12.40;99.90;;;;;;5012997;28;20293;-59
2023/05/06 00:10:06;;;;;;;9.43;3.20;;;12.40;99.90;;;;;;5027823;28;20057;-61
2023/05/06 00:12:33;;;;;;;11.60;3.22;;;12.40;99.90;;;;;;5012496;28;20505;-58
2023/05/06 00:15:02;;;;;;;9.63;3.53;;;12.40;99.90;;;;;;5000495;28;20093;-59
2023/05/06 00:17:30;;;;;;;7.30;3.10;;;12.30;99.90;;;;;;5026498;28;20057;-61
2023/05/06 00:19:58;;;;;;;8.45;2.85;;;12.20;99.90;;;;;;5029694;28;20055;-59
2023/05/06 00:22:25;;;;;;;9.02;3.33;;;11.20;99.90;;;;;;5028929;28;20050;-59
2023/05/06 00:24:53;;;;;;;9.30;3.63;;;12.10;99.90;;;;;;5025425;28;20048;-60
2023/05/06 00:27:20;;;;;;;11.48;3.75;;;12.10;99.90;;;;;;5022016;28;20050;-59
2023/05/06 00:29:49;;;;;;;9.25;3.72;;;12.00;99.90;;;;;;5009220;28;20045;-59
2023/05/06 00:32:17;;;;;;;11.13;3.15;;;12.10;99.90;;;;;;4996176;28;20045;-59
2023/05/06 00:34:45;;;;;;;9.70;3.20;;;12.00;99.90;;;;;;5014211;28;20053;-58
2023/05/06 00:37:12;;;;;;;5.72;3.03;;;12.00;99.90;;;;;;5027995;28;20041;-59
2023/05/06 00:39:40;;;;;;;8.95;3.08;;;12.00;99.90;;;;;;4994212;28;20042;-61
2023/05/06 00:42:08;;;;;;;12.77;3.00;;;11.90;99.90;;;;;;5023824;28;20560;-60
2023/05/06 00:44:36;;;;;;;11.80;3.25;;;11.90;99.90;;;;;;4992704;28;20397;-62
2023/05/06 00:47:04;;;;;;;9.60;2.80;;;11.80;99.90;;;;;;5016884;28;20044;-59
2023/05/06 00:49:31;;;;;;;12.40;4.07;;;11.90;99.90;;;;;;5018189;28;20045;-60
2023/05/06 00:52:00;;;;;;;9.02;3.33;;;11.80;99.90;;;;;;5018513;28;20527;-59
2023/05/06 00:54:29;;;;;;;12.48;3.17;;;;;;;;;;5005831;28;20556;-61
2023/05/06 00:56:57;;;;;;;8.35;3.30;;;11.70;99.90;;;;;;5021590;28;20404;-60
2023/05/06 00:59:25;;;;;;;10.52;3.55;;;11.60;99.90;;;;;;5006619;28;20048;-62
2023/05/06 01:01:53;;;;;;;8.80;2.97;;;11.70;99.90;;;;;;5009260;28;20049;-61
2023/05/06 01:04:22;;;;;;;13.55;4.55;;;11.70;99.90;;;;;;5025326;28;20523;-60
2023/05/06 01:07:43;;;;;;;7.38;3.95;;;11.60;99.90;;;;;;5026687;28;20045;-60
2023/05/06 01:10:27;;;;;;;7.85;3.45;;;11.60;99.90;;;;;;4978917;28;20069;-60
2023/05/06 01:13:26;;;;;;;7.75;3.38;;;11.60;99.90;;;;;;4998147;28;20509;-59
2023/05/06 01:15:56;;;;;;;11.25;4.80;;;11.60;99.90;;;;;;5000872;28;20045;-59
2023/05/06 01:18:26;;;;;;;10.98;3.70;;;11.60;99.90;;;;;;5027654;28;20057;-61
2023/05/06 01:20:55;;;;;;;10.55;3.80;;;11.60;99.90;;;;;;5000531;28;20400;-61
2023/05/06 01:23:23;;;;;;;13.15;3.67;;;11.60;99.90;;;;;;5010953;28;20056;-60
2023/05/06 01:25:54;;;;;;;7.25;3.85;;;11.50;99.90;;;;;;5009761;28;20041;-60
2023/05/06 01:28:22;;;;;;;9.90;4.10;;;11.50;99.90;;;;;;5029105;28;20049;-62
2023/05/06 01:30:53;;;;;;;12.98;3.45;;;11.50;99.90;;;;;;5024679;28;20062;-58
2023/05/06 01:33:27;;;;;;;8.15;3.70;;;11.50;99.90;;;;;;5026106;28;20053;-59
2023/05/06 01:35:59;;;;;;;10.55;4.50;;;11.50;99.90;;;;;;4998324;28;20061;-59
2023/05/06 01:38:42;;;;;;;16.85;4.18;;;11.50;99.90;;;;;;5029815;28;20045;-59
2023/05/06 01:41:14;;;;;;;6.75;2.90;;;11.50;99.90;;;;;;5029222;28;20045;-58
2023/05/06 01:43:46;;;;;;;7.97;3.45;;;11.50;99.90;;;;;;5014425;28;20049;-60
2023/05/06 01:46:21;;;;;;;10.98;3.67;;;11.40;99.90;;;;;;5028640;28;20042;-60
2023/05/06 01:48:54;;;;;;;11.95;4.30;;;11.40;99.90;;;;;;5013815;28;20136;-60
2023/05/06 01:51:23;;;;;;;17.48;4.70;;;11.30;99.90;;;;;;5025824;28;20049;-59
2023/05/06 01:53:51;;;;;;;10.30;3.95;;;11.40;99.90;;;;;;5013252;28;20037;-60
2023/05/06 01:56:19;;;;;;;11.57;3.72;;;11.30;99.90;;;;;;4995376;28;20505;-59
2023/05/06 01:58:47;;;;;;;11.45;3.70;;;11.30;99.90;;;;;;4994861;28;20042;-60
2023/05/06 02:01:15;;;;;;;13.85;3.95;;;11.30;99.90;;;;;;5009529;28;20044;-59
2023/05/06 02:03:42;;;;;;;9.43;4.55;;;11.30;99.90;;;;;;5011411;28;20068;-60
2023/05/06 02:06:12;;;;;;;13.00;4.72;;;11.30;99.90;;;;;;5012022;28;20041;-60
2023/05/06 02:08:40;;;;;;;14.18;4.50;;;11.30;99.90;;;;;;5029072;28;20046;-60
2023/05/06 02:11:11;;;;;;;12.60;4.75;;;11.30;99.90;;;;;;5013822;28;20052;-59
2023/05/06 02:13:39;;;;;;;15.20;5.22;;;11.30;99.90;;;;;;5014107;28;20048;-61
2023/05/06 02:16:10;;;;;;;15.65;5.70;;;11.40;99.90;;;;;;5013026;28;20050;-60
2023/05/06 02:18:38;;;;;;;15.85;5.43;;;11.40;99.90;;;;;;5030315;28;20060;-61
2023/05/06 02:21:08;;;;;;;13.38;5.55;;;11.50;99.90;;;;;;5016533;28;20045;-60
2023/05/06 02:23:36;;;;;;;17.08;5.72;;;11.50;99.90;;;;;;5031755;28;20493;-60
2023/05/06 02:26:04;;;;;;;15.10;5.28;;;11.50;99.90;;;;;;5014205;28;20049;-59
2023/05/06 02:28:32;;;;;;;12.48;5.47;;;11.50;99.90;;;;;;5018541;28;20068;-60
2023/05/06 02:31:00;;;;;;;12.73;5.18;;;11.60;99.90;;;;;;5029852;28;20057;-60
2023/05/06 02:33:28;;;;;;;10.40;4.72;;;11.60;99.90;;;;;;5031814;28;20049;-61
2023/05/06 02:35:55;;;;;;;14.95;6.07;;;11.60;99.90;;;;;;5030851;28;20056;-61
2023/05/06 02:38:23;;;;;;;20.10;7.15;;;11.60;99.90;;;;;;5010863;28;20520;-59
2023/05/06 02:40:51;;;;;;;17.77;6.18;;;11.60;99.90;;;;;;5005418;28;20054;-59
2023/05/06 02:43:19;;;;;;;15.00;6.20;;;11.60;99.90;;;;;;5029988;28;20041;-59
2023/05/06 02:45:46;;;;;;;15.10;5.47;;;11.60;99.90;;;;;;5030863;28;20056;-60
2023/05/06 02:48:15;;;;;;;16.88;6.25;;;11.70;99.90;;;;;;5031465;28;20038;-61
2023/05/06 02:50:42;;;;;;;15.77;6.00;;;11.70;99.90;;;;;;5029356;28;20046;-61
2023/05/06 02:53:12;;;;;;;23.63;6.78;;;11.70;99.90;;;;;;5013980;28;20386;-60
2023/05/06 02:55:39;;;;;;;13.10;6.70;;;11.70;99.90;;;;;;5030417;28;20045;-60
2023/05/06 02:58:07;;;;;;;19.98;7.13;;;11.80;99.90;;;;;;5030226;28;20492;-59
2023/05/06 03:00:35;;;;;;;16.70;6.32;;;11.70;99.90;;;;;;5020107;28;20056;-57
2023/05/06 03:03:02;;;;;;;18.13;6.75;;;11.80;99.90;;;;;;5037341;28;20511;-59
2023/05/06 03:05:30;;;;;;;19.83;6.88;;;11.80;99.90;;;;;;5037118;28;20037;-59
2023/05/06 03:07:58;;;;;;;16.30;7.40;;;11.80;99.90;;;;;;5037128;28;20049;-60
2023/05/06 03:10:26;;;;;;;22.10;7.10;;;11.80;99.90;;;;;;5019729;28;20053;-59
2023/05/06 03:12:56;;;;;;;12.88;7.22;;;11.90;99.90;;;;;;5000693;28;20042;-59
2023/05/06 03:15:23;;;;;;;17.50;7.38;;;11.90;99.90;;;;;;4999847;28;20064;-60
2023/05/06 03:17:51;;;;;;;18.08;7.55;;;11.90;99.90;;;;;;5013430;28;20531;-60
2023/05/06 03:20:19;;;;;;;18.20;7.78;;;11.90;99.90;;;;;;5019799;28;20060;-59
2023/05/06 03:22:51;;;;;;;20.63;6.82;;;11.90;99.90;;;;;;5036538;28;20052;-59
2023/05/06 03:25:20;;;;;;;16.45;6.82;;;11.90;99.90;;;;;;5028915;28;20040;-60
2023/05/06 03:27:48;;;;;;;16.48;6.82;;;11.90;99.90;;;;;;5024331;28;20048;-59
2023/05/06 03:30:19;;;;;;;14.90;6.57;;;12.00;99.90;;;;;;5000524;28;20046;-60
2023/05/06 03:32:49;;;;;;;19.52;7.65;;;12.00;99.90;;;;;;5016601;28;20057;-58
2023/05/06 03:35:24;;;;;;;23.17;6.65;;;12.00;99.90;;;;;;5000373;28;20061;-60
2023/05/06 03:37:56;;;;;;;15.93;6.20;;;12.00;99.90;;;;;;5007444;28;20045;-60
2023/05/06 03:40:27;;;;;;;13.50;6.35;;;12.00;99.90;;;;;;5019973;28;20053;-59
2023/05/06 03:42:56;;;;;;;13.88;7.18;;;12.00;99.90;;;;;;5019907;28;20064;-61
2023/05/06 03:45:24;;;;;;;16.00;6.90;;;12.00;99.90;;;;;;5005184;28;20401;-60
2023/05/06 03:47:53;;;;;;;17.88;7.03;;;12.00;99.90;;;;;;5016823;28;20046;-60
2023/05/06 03:50:22;;;;;;;18.48;6.68;;;12.00;99.90;;;;;;5026935;28;20477;-59
2023/05/06 03:52:52;;;;;;;15.02;6.95;;;12.00;99.90;;;;;;5036534;28;20048;-60
2023/05/06 03:55:23;;;;;;;19.08;7.72;;;12.00;99.90;;;;;;5006722;28;20053;-59
2023/05/06 03:57:50;;;;;;;17.33;7.45;;;12.00;99.90;;;;;;5007849;28;20543;-59
2023/05/06 04:00:20;;;;;;;17.17;7.90;;;11.90;99.90;;;;;;5019632;28;20500;-60
2023/05/06 04:02:53;;;;;;;24.00;7.68;;;11.90;99.90;;;;;;5020065;28;20099;-60
2023/05/06 04:05:27;;;;;;;26.45;8.25;;;11.90;99.90;;;;;;5031799;28;20142;-59
2023/05/06 04:07:54;;;;;;;18.58;9.20;;;11.80;99.90;;;;;;5036594;28;20520;-59
2023/05/06 04:10:22;;;;;;;17.02;8.88;;;11.90;99.90;;;;;;5015828;28;20041;-57
2023/05/06 04:12:53;;;;;;;27.02;9.13;;;11.80;99.90;;;;;;5016727;28;20054;-59
2023/05/06 04:15:30;;;;;;;26.20;9.15;;;11.80;99.90;;;;;;5016472;28;20038;-59
2023/05/06 04:17:59;;;;;;;20.25;8.27;;;11.80;99.90;;;;;;5003641;28;20042;-59
2023/05/06 04:20:27;;;;;;;26.25;9.40;;;11.80;99.90;;;;;;5024857;28;20049;-59
2023/05/06 04:22:54;;;;;;;26.17;9.45;;;11.80;99.90;;;;;;5016450;28;20056;-59
2023/05/06 04:25:22;;;;;;;29.73;8.80;;;11.80;99.90;;;;;;5012906;28;20049;-59
2023/05/06 04:27:50;;;;;;;28.67;10.07;;;11.90;99.90;;;;;;5023819;28;20045;-59
2023/05/06 04:30:19;;;;;;;26.92;10.73;;;11.90;99.90;;;;;;5032937;28;20504;-59
2023/05/06 04:32:48;;;;;;;;;;;11.90;99.90;;;;;;5015636;28;20430;-59
2023/05/06 04:35:16;;;;;;;28.77;10.10;;;11.90;99.90;;;;;;5032567;28;19921;-60
2023/05/06 04:37:45;;;;;;;26.70;10.30;;;11.90;99.90;;;;;;5020963;28;20306;-59
2023/05/06 04:40:18;;;;;;;33.47;10.43;;;11.90;99.90;;;;;;5016023;28;20042;-59
2023/05/06 04:42:48;;;;;;;24.27;9.68;;;11.90;99.90;;;;;;5013210;28;20592;-59
2023/05/06 04:45:23;;;;;;;28.83;10.95;;;11.90;99.90;;;;;;4996177;28;20050;-59
2023/05/06 04:47:51;;;;;;;26.33;10.85;;;12.00;99.90;;;;;;5002150;28;20045;-58
2023/05/06 04:50:19;;;;;;;35.35;10.88;;;12.00;99.90;;;;;;5026574;28;20045;-60
2023/05/06 04:52:47;;;;;;;30.73;9.55;;;12.00;99.90;;;;;;4998038;28;20452;-58
2023/05/06 04:55:17;;;;;;;35.67;10.23;;;12.00;99.90;;;;;;5002089;28;20611;-59
2023/05/06 04:57:50;;;;;;;28.65;10.43;;;12.00;99.90;;;;;;5018499;28;20061;-60
2023/05/06 05:00:18;;;;;;;33.47;11.75;;;12.10;99.90;;;;;;5009803;28;20057;-59
2023/05/06 05:02:46;;;;;;;36.40;10.68;;;12.00;99.90;;;;;;5015044;28;20048;-62
2023/05/06 05:05:16;;;;;;;;;;;12.10;99.90;;;;;;5013311;28;20393;-60
2023/05/06 05:07:46;;;;;;;33.13;10.73;;;12.90;99.90;;;;;;5017825;28;19921;-60
2023/05/06 05:10:15;;;;;;;33.28;11.07;;;12.20;99.90;;;;;;5011859;28;20380;-61
2023/05/06 05:12:43;;;;;;;36.67;10.18;;;12.20;99.90;;;;;;5005366;28;20052;-59
2023/05/06 05:15:11;;;;;;;32.25;10.70;;;12.30;99.90;;;;;;5014104;28;20045;-59
2023/05/06 05:17:39;;;;;;;30.88;9.65;;;12.30;99.90;;;;;;5023629;28;20507;-60
2023/05/06 05:20:08;;;;;;;32.88;10.13;;;12.30;99.90;;;;;;5023486;28;20037;-60
2023/05/06 05:22:37;;;;;;;29.95;9.80;;;12.30;99.90;;;;;;5008582;28;20057;-60
2023/05/06 05:25:06;;;;;;;34.13;8.90;;;12.40;99.90;;;;;;5020547;28;20057;-60
2023/05/06 05:27:36;;;;;;;27.92;9.70;;;12.40;99.90;;;;;;5004537;28;20059;-59
2023/05/06 05:30:04;;;;;;;31.15;8.98;;;12.40;99.90;;;;;;4995920;28;20041;-59
2023/05/06 05:32:36;;;;;;;32.90;9.15;;;12.40;99.90;;;;;;5025387;28;20057;-62
2023/05/06 05:35:04;;;;;;;26.92;9.40;;;12.40;99.90;;;;;;5002842;28;20048;-60
2023/05/06 05:37:35;;;;;;;25.40;8.07;;;12.40;99.90;;;;;;5009287;28;20053;-60
2023/05/06 05:40:08;;;;;;;21.65;7.63;;;12.50;99.90;;;;;;5008734;28;20049;-60
2023/05/06 05:42:39;;;;;;;50.05;10.95;;;12.50;99.90;;;;;;5008116;28;20048;-60
2023/05/06 05:45:15;;;;;;;27.73;8.80;;;12.50;99.90;;;;;;5010227;28;20052;-60
2023/05/06 05:47:46;;;;;;;31.13;8.52;;;;;;;;;;5011101;28;20372;-59
2023/05/06 05:50:15;;;;;;;28.10;7.57;;;12.50;99.90;;;;;;5010210;28;20049;-61
2023/05/06 05:52:44;;;;;;;31.38;8.77;;;12.60;99.90;;;;;;5025831;28;20053;-60
2023/05/06 05:55:12;;;;;;;30.40;8.40;;;12.60;99.90;;;;;;5007652;28;20041;-61
2023/05/06 05:57:44;;;;;;;29.85;7.63;;;12.60;99.90;;;;;;5007842;28;20045;-60
2023/05/06 06:00:12;;;;;;;36.60;7.57;;;12.70;99.90;;;;;;5026170;28;20041;-60
2023/05/06 06:02:46;;;;;;;31.48;7.88;;;12.70;99.90;;;;;;5020176;28;20037;-59
2023/05/06 06:05:18;;;;;;;27.85;7.57;;;12.70;99.90;;;;;;5013984;28;20084;-60
2023/05/06 06:07:48;;;;;;;;;;;12.80;99.90;;;;;;5027411;28;20053;-59
2023/05/06 06:10:16;;;;;;;30.40;6.63;;;12.80;99.90;;;;;;4991542;28;19926;-60
2023/05/06 06:12:45;;;;;;;20.60;6.68;;;12.80;99.90;;;;;;4991217;28;20050;-60
2023/05/06 06:15:17;;;;;;;18.83;6.68;;;12.90;99.90;;;;;;5007640;28;20036;-60
2023/05/06 06:17:46;;;;;;;24.80;7.32;;;13.00;99.90;;;;;;5008630;28;20041;-59
2023/05/06 06:20:14;;;;;;;25.23;5.95;;;13.20;99.90;;;;;;5015706;28;20046;-60
2023/05/06 06:22:42;;;;;;;27.70;7.35;;;13.10;99.90;;;;;;5014903;28;20061;-60
2023/05/06 06:25:10;;;;;;;32.58;7.40;;;13.10;99.90;;;;;;4989663;28;20061;-60
2023/05/06 06:27:38;;;;;;;25.75;6.80;;;13.20;99.90;;;;;;5007185;28;20056;-60
2023/05/06 06:30:08;;;;;;;31.40;7.43;;;13.20;99.90;;;;;;4991827;28;20061;-60
2023/05/06 06:32:35;;;;;;;24.67;6.97;;;13.20;99.90;;;;;;5024950;28;20057;-60
2023/05/06 06:35:03;;;;;;;34.00;6.55;;;13.20;99.90;;;;;;5004648;28;20050;-59
2023/05/06 06:37:31;;;;;;;21.35;6.35;;;13.20;99.90;;;;;;4994667;28;20056;-60
2023/05/06 06:39:59;;;;;;;25.20;5.72;;;13.30;99.90;;;;;;5010804;28;20513;-61
2023/05/06 06:42:26;;;;;;;24.48;5.55;;;13.30;99.90;;;;;;5028201;28;20041;-60
2023/05/06 06:45:10;;;;;;;;;;;13.30;99.90;;;;;;5010337;28;20033;-59
2023/05/06 06:47:39;;;;;;;23.10;6.18;;;13.40;99.90;;;;;;5025883;28;20380;-59
2023/05/06 06:50:08;;;;;;;18.30;5.57;;;13.40;99.90;;;;;;5026739;28;20049;-60
2023/05/06 06:52:35;;;;;;;20.05;5.72;;;13.40;99.90;;;;;;5010148;28;20053;-57
2023/05/06 06:55:04;;;;;;;28.48;6.25;;;13.60;99.90;;;;;;4999310;28;20058;-60
2023/05/06 06:57:32;;;;;;;28.60;5.55;;;13.60;99.90;;;;;;5022855;28;20501;-63
2023/05/06 07:00:03;;;;;;;19.77;5.25;;;13.60;99.90;;;;;;5001789;28;20077;-59
2023/05/06 07:02:31;;;;;;;28.02;6.47;;;12.70;99.90;;;;;;5005020;28;20563;-60
2023/05/06 07:04:58;;;;;;;25.23;6.00;;;13.80;99.90;;;;;;5020665;28;20069;-60
2023/05/06 07:07:26;;;;;;;26.00;5.30;;;13.80;99.90;;;;;;4987747;28;20042;-61
2023/05/06 07:09:54;;;;;;;20.90;4.68;;;13.90;99.90;;;;;;5012232;28;20121;-60
2023/05/06 07:12:23;;;;;;;21.33;4.28;;;13.90;99.90;;;;;;5026564;28;20053;-60
2023/05/06 07:14:50;;;;;;;21.98;5.47;;;13.90;99.90;;;;;;4994615;28;20639;-59
2023/05/06 07:17:18;;;;;;;20.15;5.13;;;14.00;99.90;;;;;;5010158;28;20056;-60
2023/05/06 07:19:46;;;;;;;16.73;4.20;;;14.00;99.90;;;;;;5023059;28;20041;-61
2023/05/06 07:22:14;;;;;;;20.25;5.03;;;14.00;99.90;;;;;;5025375;28;20401;-60
2023/05/06 07:24:42;;;;;;;16.15;4.70;;;14.10;99.90;;;;;;5026035;28;20050;-59
2023/05/06 07:27:10;;;;;;;17.30;3.90;;;14.10;99.90;;;;;;5007186;28;20409;-61
2023/05/06 07:29:37;;;;;;;18.98;4.32;;;14.30;99.90;;;;;;5023800;28;20048;-61
2023/05/06 07:32:05;;;;;;;18.50;4.50;;;14.40;99.90;;;;;;5027357;28;20417;-60
2023/05/06 07:34:33;;;;;;;19.85;4.05;;;14.40;99.90;;;;;;5021075;28;20045;-61
2023/05/06 07:37:02;;;;;;;13.50;3.65;;;14.50;99.90;;;;;;5009363;28;20049;-60
2023/05/06 07:39:33;;;;;;;13.20;3.97;;;14.60;99.90;;;;;;5025563;28;20065;-61
2023/05/06 07:42:01;;;;;;;19.02;3.45;;;14.60;99.90;;;;;;5008587;28;20049;-59
2023/05/06 07:44:28;;;;;;;14.57;3.50;;;14.70;99.90;;;;;;5014218;28;20068;-61
2023/05/06 07:46:58;;;;;;;17.15;4.47;;;14.70;99.90;;;;;;4993608;28;20050;-60
2023/05/06 07:49:27;;;;;;;21.80;4.28;;;14.80;99.90;;;;;;5007523;28;20416;-61
2023/05/06 07:51:56;;;;;;;17.60;3.08;;;14.90;99.90;;;;;;5018782;28;20056;-61
2023/05/06 07:54:24;;;;;;;14.95;2.63;;;14.80;99.90;;;;;;5010131;28;20496;-61
2023/05/06 07:56:54;;;;;;;12.35;3.53;;;14.90;99.90;;;;;;5020826;28;20056;-60
2023/05/06 07:59:21;;;;;;;12.32;2.83;;;14.90;99.90;;;;;;5021882;28;20053;-60
2023/05/06 08:01:49;;;;;;;14.90;3.88;;;14.90;99.90;;;;;;5013899;28;20421;-61
2023/05/06 08:04:17;;;;;;;14.63;3.33;;;15.00;99.90;;;;;;5014513;28;20045;-60
2023/05/06 08:06:45;;;;;;;15.82;3.53;;;14.90;99.90;;;;;;5023210;28;20041;-61
2023/05/06 08:09:12;;;;;;;19.00;3.00;;;14.90;99.90;;;;;;5023429;28;20064;-61
2023/05/06 08:11:50;;;;;;;14.80;2.95;;;14.90;99.90;;;;;;5022564;28;20056;-61
2023/05/06 08:14:20;;;;;;;15.20;3.28;;;14.90;99.90;;;;;;5022279;28;20079;-60
2023/05/06 08:16:52;;;;;;;15.63;3.20;;;14.90;99.90;;;;;;5007599;28;20041;-60
2023/05/06 08:19:20;;;;;;;13.15;3.28;;;15.00;99.90;;;;;;5024820;28;20041;-62
2023/05/06 08:21:49;;;;;;;11.75;3.30;;;15.00;99.90;;;;;;5017220;28;20392;-61
2023/05/06 08:24:17;;;;;;;14.50;2.90;;;15.10;99.90;;;;;;4995778;28;20060;-60
2023/05/06 08:26:44;;;;;;;14.30;3.03;;;15.20;99.90;;;;;;5012883;28;20400;-62
2023/05/06 08:29:12;;;;;;;9.73;2.95;;;15.40;99.90;;;;;;5021789;28;20048;-60
2023/05/06 08:31:40;;;;;;;11.40;3.67;;;15.40;99.90;;;;;;5022090;28;20053;-61
2023/05/06 08:34:07;;;;;;;14.00;3.40;;;15.40;99.90;;;;;;5017327;28;20041;-62
2023/05/06 08:36:36;;;;;;;14.38;3.50;;;15.40;99.90;;;;;;5021372;28;20041;-62
2023/05/06 08:39:09;;;;;;;13.10;3.35;;;15.40;99.90;;;;;;4971063;28;20053;-61
2023/05/06 08:41:38;;;;;;;13.43;3.38;;;14.90;99.90;;;;;;5022197;28;20053;-61
2023/05/06 08:44:08;;;;;;;12.82;3.67;;;15.50;99.90;;;;;;5016837;28;20049;-62
2023/05/06 08:46:36;;;;;;;15.60;3.65;;;15.50;99.90;;;;;;5024296;28;20049;-62
2023/05/06 08:49:04;;;;;;;13.68;3.50;;;15.60;99.90;;;;;;5023768;28;20045;-61
2023/05/06 08:51:33;;;;;;;14.02;3.10;;;15.60;99.90;;;;;;5003563;28;20108;-60
2023/05/06 08:54:03;;;;;;;12.25;3.05;;;15.50;99.90;;;;;;5013631;28;20057;-59
2023/05/06 08:56:32;;;;;;;12.63;3.42;;;15.50;99.90;;;;;;4998955;28;20048;-61
2023/05/06 08:59:01;;;;;;;13.90;3.20;;;15.50;99.90;;;;;;5003433;28;20052;-61
2023/05/06 09:01:55;;;;;;;15.65;3.72;;;15.60;99.90;;;;;;5016969;28;20404;-61
2023/05/06 09:04:23;;;;;;;10.80;2.92;;;15.50;99.90;;;;;;5016731;28;20045;-61
2023/05/06 09:06:50;;;;;;;12.23;2.30;;;15.60;99.90;;;;;;5038610;28;20044;-61
2023/05/06 09:09:18;;;;;;;12.20;3.17;;;15.50;99.90;;;;;;5025999;28;20829;-62
2023/05/06 09:11:52;;;;;;;13.77;2.50;;;15.50;99.90;;;;;;5021023;28;20464;-61
2023/05/06 09:14:20;;;;;;;15.57;2.40;;;15.50;99.90;;;;;;4994081;28;20053;-61
2023/05/06 09:16:51;;;;;;;12.18;2.88;;;15.50;99.90;;;;;;5014606;28;20049;-60
2023/05/06 09:19:24;;;;;;;15.63;2.60;;;15.50;99.90;;;;;;5024940;28;20092;-61
2023/05/06 09:21:52;;;;;;;13.23;3.35;;;15.50;99.90;;;;;;5021597;28;20037;-60
2023/05/06 09:24:20;;;;;;;12.52;3.22;;;15.50;99.90;;;;;;5018668;28;20049;-60
2023/05/06 09:26:50;;;;;;;10.50;2.53;;;15.50;99.90;;;;;;5017264;28;20049;-60
2023/05/06 09:29:17;;;;;;;9.85;1.90;;;15.50;99.90;;;;;;5020061;28;20048;-60
2023/05/06 09:31:46;;;;;;;10.23;2.13;;;15.60;99.90;;;;;;5016427;28;20053;-62
2023/05/06 09:34:16;;;;;;;11.02;2.33;;;15.50;99.90;;;;;;5018421;28;20048;-61
2023/05/06 09:36:44;;;;;;;9.90;2.10;;;15.50;99.90;;;;;;5004291;28;20065;-62
2023/05/06 09:39:12;;;;;;;11.35;2.50;;;15.50;99.90;;;;;;5021028;28;20037;-60
2023/05/06 09:41:39;;;;;;;14.55;3.17;;;15.40;99.90;;;;;;5019689;28;20049;-61
2023/05/06 09:44:08;;;;;;;9.00;2.55;;;15.50;99.90;;;;;;5019701;28;20041;-60
2023/05/06 09:46:36;;;;;;;12.82;2.90;;;15.50;99.90;;;;;;5019365;28;20045;-61
2023/05/06 09:49:07;;;;;;;13.45;3.58;;;15.40;99.90;;;;;;5020901;28;20049;-62
2023/05/06 09:51:35;;;;;;;7.63;2.22;;;15.30;99.90;;;;;;5022654;28;20045;-60
2023/05/06 09:54:09;;;;;;;12.38;2.67;;;15.40;99.90;;;;;;5019618;28;20041;-61
2023/05/06 09:56:37;;;;;;;11.18;2.20;;;15.30;99.90;;;;;;5007315;28;20065;-59
2023/05/06 09:59:06;;;;;;;15.55;4.05;;;15.30;99.90;;;;;;5008184;28;20050;-61
2023/05/06 10:01:35;;;;;;;12.73;3.40;;;15.20;99.90;;;;;;5009457;28;20092;-61
2023/05/06 10:04:06;;;;;;;;;;;15.20;99.90;;;;;;5001077;28;20045;-60
2023/05/06 10:06:38;;;;;;;14.05;2.90;;;15.20;99.90;;;;;;5017114;28;19921;-60
2023/05/06 10:09:09;;;;;;;13.88;3.13;;;15.20;99.90;;;;;;5010609;28;20425;-62
2023/05/06 10:11:37;;;;;;;17.48;3.33;;;15.20;99.90;;;;;;5005733;28;20045;-61
2023/05/06 10:14:06;;;;;;;16.92;4.03;;;15.20;99.90;;;;;;5007218;28;20046;-60
2023/05/06 10:16:35;;;;;;;12.75;3.08;;;15.20;99.90;;;;;;5025230;28;20424;-60
2023/05/06 10:19:06;;;;;;;13.95;3.47;;;15.10;99.90;;;;;;5010665;28;20049;-60
2023/05/06 10:21:44;;;;;;;12.32;2.97;;;15.10;99.90;;;;;;5007578;28;20038;-61
2023/05/06 10:24:15;;;;;;;13.73;2.80;;;15.10;99.90;;;;;;5007815;28;20056;-61
2023/05/06 10:26:45;;;;;;;12.38;3.03;;;15.00;99.90;;;;;;5024673;28;20048;-60
2023/05/06 10:29:13;;;;;;;13.20;3.33;;;14.60;99.90;;;;;;4998203;28;20405;-61
2023/05/06 10:31:53;;;;;;;10.90;2.90;;;15.00;99.90;;;;;;4987490;28;20053;-62
2023/05/06 10:34:22;;;;;;;;;;;15.00;99.90;;;;;;5015536;28;20049;-60
2023/05/06 10:36:55;;;;;;;14.07;3.25;;;15.00;99.90;;;;;;5007199;28;19928;-60
2023/05/06 10:39:23;;;;;;;14.30;3.47;;;15.00;99.90;;;;;;5006098;28;20042;-61
2023/05/06 10:41:51;;;;;;;13.23;3.78;;;15.00;99.90;;;;;;5004886;28;20054;-61
2023/05/06 10:44:55;;;;;;;10.93;2.55;;;15.00;99.90;;;;;;5006887;28;20045;-62
2023/05/06 10:47:23;;;;;;;17.23;3.75;;;15.00;99.90;;;;;;5023898;28;20046;-61
2023/05/06 10:50:21;;;;;;;14.48;3.38;;;14.90;99.90;;;;;;5000140;28;20480;-61
2023/05/06 10:52:54;;;;;;;17.52;3.05;;;15.00;99.90;;;;;;5005378;28;20054;-60
2023/05/06 10:55:33;;;;;;;16.77;4.03;;;15.10;99.90;;;;;;5012773;28;20049;-61
2023/05/06 10:58:14;;;;;;;16.75;3.80;;;15.10;99.90;;;;;;5006822;28;20048;-61
2023/05/06 11:00:53;;;;;;;12.48;3.03;;;15.10;99.90;;;;;;5025036;28;20054;-60
2023/05/06 11:03:22;;;;;;;17.20;2.78;;;15.10;99.90;;;;;;5022994;28;20049;-60
2023/05/06 11:05:51;;;;;;;15.85;3.88;;;15.10;99.90;;;;;;5024581;28;20521;-59
2023/05/06 11:08:25;;;;;;;14.07;3.47;;;15.30;99.90;;;;;;5007969;28;20045;-61
2023/05/06 11:10:54;;;;;;;15.50;3.67;;;15.30;99.90;;;;;;5015735;28;20397;-60
2023/05/06 11:13:21;;;;;;;21.13;3.55;;;15.40;99.90;;;;;;5023210;28;20046;-59
2023/05/06 11:15:50;;;;;;;13.32;3.63;;;15.50;99.90;;;;;;5024599;28;20041;-60
2023/05/06 11:18:23;;;;;;;9.70;3.15;;;15.50;99.90;;;;;;5024604;28;20049;-61
2023/05/06 11:21:01;;;;;;;8.73;3.33;;;15.50;99.90;;;;;;4999160;28;20046;-60
2023/05/06 11:23:51;;;;;;;11.40;2.75;;;15.60;99.90;;;;;;5027681;28;20053;-62
2023/05/06 11:26:19;;;;;;;18.55;3.33;;;15.70;99.90;;;;;;5027661;28;20049;-61
2023/05/06 11:28:50;;;;;;;14.23;3.55;;;15.80;99.90;;;;;;5027929;28;20112;-60
2023/05/06 11:31:19;;;;;;;11.20;2.65;;;15.80;99.90;;;;;;5028044;28;20065;-61
2023/05/06 11:33:51;;;;;;;11.27;3.33;;;15.80;99.90;;;;;;5013463;28;20053;-61
2023/05/06 11:36:20;;;;;;;14.32;2.67;;;15.80;99.90;;;;;;5021528;28;20052;-60
2023/05/06 11:38:51;;;;;;;12.07;2.35;;;15.70;99.90;;;;;;5027175;28;20041;-64
2023/05/06 11:41:21;;;;;;;6.63;2.58;;;15.70;99.90;;;;;;5020651;28;20053;-60
2023/05/06 11:43:51;;;;;;;8.43;2.10;;;15.70;99.90;;;;;;5021295;28;20054;-60
2023/05/06 11:46:21;;;;;;;8.45;2.53;;;15.70;99.90;;;;;;5007457;28;20066;-60
2023/05/06 11:48:49;;;;;;;7.90;2.17;;;15.60;99.90;;;;;;5004191;28;20052;-63
2023/05/06 11:51:23;;;;;;;11.75;2.53;;;15.60;99.90;;;;;;5024048;28;20477;-59
2023/05/06 11:54:08;;;;;;;5.97;1.75;;;15.60;99.90;;;;;;5017250;28;20053;-60
2023/05/06 11:57:05;;;;;;;5.53;1.67;;;15.50;99.90;;;;;;5022673;28;20060;-61
2023/05/06 11:59:38;;;;;;;7.88;1.70;;;15.50;99.90;;;;;;4995863;28;20050;-62
2023/05/06 12:02:08;;;;;;;7.90;1.60;;;15.50;99.90;;;;;;5017556;28;20038;-61
2023/05/06 12:04:41;;;;;;;5.55;2.30;;;15.70;99.90;;;;;;5014197;28;20049;-64
2023/05/06 12:07:12;;;;;;;8.18;1.60;;;15.90;99.90;;;;;;5008024;28;20053;-61
2023/05/06 12:09:42;;;;;;;6.68;1.48;;;16.00;99.90;;;;;;5008017;28;20052;-62
2023/05/06 12:12:11;;;;;;;5.82;1.40;;;16.20;99.90;;;;;;5025024;28;20052;-61
2023/05/06 12:14:43;;;;;;;6.45;1.52;;;16.50;99.90;;;;;;5024525;28;20045;-60
2023/05/06 12:17:11;;;;;;;2.80;1.10;;;16.50;99.90;;;;;;5026508;28;20060;-61
2023/05/06 12:19:40;;;;;;;4.85;1.10;;;16.70;99.90;;;;;;5025703;28;20057;-61
2023/05/06 12:22:17;;;;;;;6.93;1.65;;;16.90;99.90;;;;;;4990162;28;20457;-62
2023/05/06 12:24:47;;;;;;;5.53;1.33;;;17.10;99.90;;;;;;5007446;28;20061;-61
2023/05/06 12:27:28;;;;;;;2.85;1.05;;;17.30;99.90;;;;;;4999229;28;20057;-60
2023/05/06 12:29:56;;;;;;;4.45;1.20;;;17.40;99.90;;;;;;5007685;28;20038;-62
2023/05/06 12:32:23;;;;;;;4.32;0.82;;;17.60;99.90;;;;;;5026730;28;20080;-61
2023/05/06 12:34:51;;;;;;;6.05;1.38;;;17.70;99.90;;;;;;4997520;28;20492;-62
2023/05/06 12:37:29;;;;;;;4.30;1.83;;;17.70;99.90;;;;;;5026229;28;20046;-60
2023/05/06 12:39:57;;;;;;;5.85;1.30;;;17.60;99.90;;;;;;5016790;28;20057;-60
2023/05/06 12:42:26;;;;;;;4.28;1.10;;;17.40;99.90;;;;;;5024535;28;20056;-61
2023/05/06 12:44:54;;;;;;;5.82;1.42;;;;;;;;;;5008812;28;20053;-61
2023/05/06 12:47:25;;;;;;;4.20;1.63;;;16.90;99.90;;;;;;5023229;28;20045;-61
2023/05/06 12:49:59;;;;;;;6.40;1.73;;;16.70;99.90;;;;;;5023539;28;20389;-61
2023/05/06 12:52:28;;;;;;;4.90;1.80;;;16.50;99.90;;;;;;5009427;28;20454;-61
2023/05/06 12:54:59;;;;;;;5.10;1.90;;;16.20;99.90;;;;;;5010835;28;20053;-61